createdAt,value
2019-02-17T00:00:09.622Z,-0.8
2019-02-17T00:00:59.715Z,-0.8
2019-02-17T00:01:49.488Z,-0.8
2019-02-17T00:02:39.801Z,-0.8
2019-02-17T00:03:29.605Z,-0.8
2019-02-17T00:04:19.922Z,-0.8
2019-02-17T00:05:09.713Z,-0.8
2019-02-17T00:06:00.367Z,-0.8
2019-02-17T00:06:50.390Z,-0.9
2019-02-17T00:07:39.878Z,-0.9
2019-02-17T00:08:29.402Z,-0.9
2019-02-17T00:09:20.082Z,-0.9
2019-02-17T00:10:10.050Z,-0.9
2019-02-17T00:11:00.676Z,-0.9
2019-02-17T00:13:30.310Z,-1
2019-02-17T00:14:20.935Z,-1.1
2019-02-17T00:15:10.687Z,-1.1
2019-02-17T00:16:01.012Z,-1.1
2019-02-17T00:16:51.066Z,-1.1
2019-02-17T00:17:41.129Z,-1.1
2019-02-17T00:18:30.634Z,-1.1
2019-02-17T00:19:21.264Z,-1.1
2019-02-17T00:20:11.024Z,-1.1
2019-02-17T00:21:01.106Z,-1.2
2019-02-17T00:21:51.153Z,-1.1
2019-02-17T00:22:40.916Z,-1.1
2019-02-17T00:23:31.537Z,-1.2
2019-02-17T00:24:21.604Z,-1.1
2019-02-17T00:25:11.436Z,-1.1
2019-02-17T00:26:01.169Z,-1.1
2019-02-17T00:26:51.532Z,-1
2019-02-17T00:27:41.823Z,-0.9
2019-02-17T00:28:31.608Z,-0.9
2019-02-17T00:29:21.939Z,-0.9
2019-02-17T00:30:11.989Z,-0.8
2019-02-17T00:31:01.789Z,-0.8
2019-02-17T00:31:51.876Z,-0.7
2019-02-17T00:32:42.166Z,-0.8
2019-02-17T00:33:31.411Z,-0.8
2019-02-17T00:34:22.341Z,-0.8
2019-02-17T00:35:11.806Z,-0.7
2019-02-17T00:36:02.136Z,-0.6
2019-02-17T00:36:52.202Z,-0.6
2019-02-17T00:37:42.536Z,-0.5
2019-02-17T00:38:32.563Z,-0.4
2019-02-17T00:39:22.360Z,-0.4
2019-02-17T00:40:12.698Z,-0.4
2019-02-17T00:41:02.196Z,-0.4
2019-02-17T00:41:52.545Z,-0.4
2019-02-17T00:42:42.307Z,-0.5
2019-02-17T00:43:32.693Z,-0.6
2019-02-17T00:44:22.768Z,-0.6
2019-02-17T00:45:12.483Z,-0.6
2019-02-17T00:46:02.817Z,-0.4
2019-02-17T00:46:53.190Z,-0.4
2019-02-17T00:47:42.665Z,-0.4
2019-02-17T00:48:32.990Z,-0.5
2019-02-17T00:49:22.815Z,-0.4
2019-02-17T00:50:13.160Z,-0.4
2019-02-17T00:51:03.427Z,-0.5
2019-02-17T00:51:53.240Z,-0.5
2019-02-17T00:52:43.331Z,-0.5
2019-02-17T00:53:33.372Z,-0.6
2019-02-17T00:54:23.387Z,-0.6
2019-02-17T00:55:13.725Z,-0.6
2019-02-17T00:56:03.797Z,-0.6
2019-02-17T00:56:53.277Z,-0.6
2019-02-17T00:57:43.342Z,-0.7
2019-02-17T00:58:33.959Z,-0.7
2019-02-17T00:59:24.066Z,-0.8
2019-02-17T01:00:13.849Z,-0.7
2019-02-17T01:01:03.580Z,-0.8
2019-02-17T01:01:53.696Z,-0.8
2019-02-17T01:02:44.250Z,-0.9
2019-02-17T01:03:34.388Z,-0.9
2019-02-17T01:04:24.088Z,-0.9
2019-02-17T01:05:14.219Z,-0.9
2019-02-17T01:06:03.428Z,-0.8
2019-02-17T01:06:54.035Z,-0.8
2019-02-17T01:07:44.337Z,-0.8
2019-02-17T01:08:34.107Z,-0.8
2019-02-17T01:09:24.434Z,-0.8
2019-02-17T01:10:14.603Z,-0.7
2019-02-17T01:11:04.901Z,-0.7
2019-02-17T01:11:54.080Z,-0.7
2019-02-17T01:12:44.393Z,-0.8
2019-02-17T01:13:35.039Z,-0.8
2019-02-17T01:14:24.787Z,-0.8
2019-02-17T01:15:14.712Z,-0.8
2019-02-17T01:16:04.607Z,-0.8
2019-02-17T01:16:54.821Z,-0.9
2019-02-17T01:17:44.526Z,-1
2019-02-17T01:18:34.589Z,-1.1
2019-02-17T01:19:25.408Z,-1.1
2019-02-17T01:20:15.472Z,-1.1
2019-02-17T01:21:05.246Z,-1.1
2019-02-17T01:21:55.579Z,-1.1
2019-02-17T01:22:45.363Z,-1.1
2019-02-17T01:23:35.409Z,-1.1
2019-02-17T01:24:25.205Z,-1.1
2019-02-17T01:25:15.831Z,-1.1
2019-02-17T01:26:05.861Z,-1.1
2019-02-17T01:26:55.378Z,-1.2
2019-02-17T01:27:45.449Z,-1.3
2019-02-17T01:28:36.035Z,-1.3
2019-02-17T01:29:25.835Z,-1.3
2019-02-17T01:30:16.178Z,-1.3
2019-02-17T01:31:07.931Z,-1.3
2019-02-17T01:31:55.994Z,-1.3
2019-02-17T01:32:46.340Z,-1.4
2019-02-17T01:33:36.370Z,-1.4
2019-02-17T01:34:26.183Z,-1.5
2019-02-17T01:35:15.956Z,-1.6
2019-02-17T01:36:06.347Z,-1.6
2019-02-17T01:36:56.084Z,-1.6
2019-02-17T01:37:46.702Z,-1.6
2019-02-17T01:38:36.797Z,-1.6
2019-02-17T01:39:26.800Z,-1.7
2019-02-17T01:40:16.031Z,-1.7
2019-02-17T01:41:06.912Z,-1.8
2019-02-17T01:41:56.961Z,-1.8
2019-02-17T01:42:46.749Z,-1.8
2019-02-17T01:43:36.846Z,-1.7
2019-02-17T01:44:26.624Z,-1.7
2019-02-17T01:45:17.231Z,-1.8
2019-02-17T01:46:06.966Z,-1.8
2019-02-17T01:46:57.042Z,-1.8
2019-02-17T01:47:47.091Z,-1.8
2019-02-17T01:48:37.151Z,-1.8
2019-02-17T01:49:27.261Z,-1.9
2019-02-17T01:50:16.990Z,-1.9
2019-02-17T01:51:07.106Z,-1.9
2019-02-17T01:51:57.653Z,-1.8
2019-02-17T01:52:47.195Z,-1.8
2019-02-17T01:53:37.220Z,-1.8
2019-02-17T01:54:27.895Z,-1.8
2019-02-17T01:55:17.370Z,-1.7
2019-02-17T01:56:07.130Z,-1.7
2019-02-17T01:56:57.743Z,-1.8
2019-02-17T01:57:47.782Z,-1.8
2019-02-17T01:58:37.568Z,-1.7
2019-02-17T01:59:33.589Z,-1.6
2019-02-17T02:00:17.695Z,-1.6
2019-02-17T02:01:07.740Z,-1.6
2019-02-17T02:01:57.797Z,-1.5
2019-02-17T02:02:48.415Z,-1.6
2019-02-17T02:03:38.477Z,-1.6
2019-02-17T02:04:28.259Z,-1.8
2019-02-17T02:05:18.316Z,-1.7
2019-02-17T02:06:07.884Z,-1.6
2019-02-17T02:06:57.662Z,-1.6
2019-02-17T02:07:47.717Z,-1.7
2019-02-17T02:08:38.369Z,-1.8
2019-02-17T02:09:28.409Z,-1.8
2019-02-17T02:10:17.886Z,-1.8
2019-02-17T02:11:08.714Z,-1.8
2019-02-17T02:11:59.050Z,-1.6
2019-02-17T02:12:48.833Z,-1.4
2019-02-17T02:13:38.881Z,-1.5
2019-02-17T02:14:28.947Z,-1.4
2019-02-17T02:15:18.995Z,-1.4
2019-02-17T02:16:08.301Z,-1.6
2019-02-17T02:16:58.372Z,-1.6
2019-02-17T02:17:48.700Z,-1.6
2019-02-17T02:18:39.054Z,-1.6
2019-02-17T02:19:28.810Z,-1.6
2019-02-17T02:20:19.148Z,-1.6
2019-02-17T02:21:09.400Z,-1.4
2019-02-17T02:21:59.550Z,-1.3
2019-02-17T02:22:49.236Z,-1.3
2019-02-17T02:23:39.587Z,-1.2
2019-02-17T02:24:29.914Z,-1.1
2019-02-17T02:25:19.707Z,-1.4
2019-02-17T02:26:10.024Z,-1.4
2019-02-17T02:26:59.545Z,-1.6
2019-02-17T02:27:49.604Z,-1.5
2019-02-17T02:28:39.922Z,-1.5
2019-02-17T02:29:29.492Z,-1.6
2019-02-17T02:30:19.363Z,-1.6
2019-02-17T02:31:09.857Z,-1.6
2019-02-17T02:32:00.196Z,-1.6
2019-02-17T02:32:49.959Z,-1.6
2019-02-17T02:33:39.727Z,-1.8
2019-02-17T02:34:30.319Z,-1.9
2019-02-17T02:35:20.131Z,-2
2019-02-17T02:36:10.207Z,-2.1
2019-02-17T02:37:00.920Z,-2.1
2019-02-17T02:37:50.048Z,-2
2019-02-17T02:38:40.706Z,-1.9
2019-02-17T02:39:30.693Z,-1.9
2019-02-17T02:40:21.122Z,-1.9
2019-02-17T02:41:11.071Z,-1.8
2019-02-17T02:42:00.576Z,-1.8
2019-02-17T02:42:50.942Z,-1.8
2019-02-17T02:43:40.703Z,-1.7
2019-02-17T02:44:31.033Z,-1.7
2019-02-17T02:45:21.080Z,-1.7
2019-02-17T02:46:11.152Z,-1.6
2019-02-17T02:47:01.511Z,-1.6
2019-02-17T02:47:50.979Z,-1.5
2019-02-17T02:48:41.070Z,-1.6
2019-02-17T02:49:31.106Z,-1.8
2019-02-17T02:50:21.723Z,-1.8
2019-02-17T02:51:11.763Z,-1.8
2019-02-17T02:52:01.834Z,-1.8
2019-02-17T02:52:51.396Z,-1.8
2019-02-17T02:53:42.058Z,-1.7
2019-02-17T02:54:32.020Z,-1.7
2019-02-17T02:55:21.251Z,-1.7
2019-02-17T02:56:12.120Z,-1.6
2019-02-17T02:57:02.187Z,-1.6
2019-02-17T02:57:51.710Z,-1.6
2019-02-17T02:58:42.299Z,-1.5
2019-02-17T02:59:31.812Z,-1.4
2019-02-17T03:00:22.485Z,-1.4
2019-02-17T03:01:12.210Z,-1.4
2019-02-17T03:02:02.003Z,-1.4
2019-02-17T03:02:52.603Z,-1.3
2019-02-17T03:03:42.674Z,-1.3
2019-02-17T03:04:32.708Z,-1.3
2019-02-17T03:08:05.189Z,-1.2
2019-02-17T03:08:55.207Z,-1.2
2019-02-17T03:09:44.994Z,-1.3
2019-02-17T03:10:34.756Z,-1.3
2019-02-17T03:11:25.391Z,-1.3
2019-02-17T03:12:15.154Z,-1.3
2019-02-17T03:13:05.210Z,-1.3
2019-02-17T03:13:55.335Z,-1.4
2019-02-17T03:14:44.501Z,-1.4
2019-02-17T03:15:35.094Z,-1.4
2019-02-17T03:16:25.431Z,-1.6
2019-02-17T03:17:15.583Z,-1.7
2019-02-17T03:18:05.572Z,-1.7
2019-02-17T03:18:55.602Z,-1.7
2019-02-17T03:19:45.684Z,-1.7
2019-02-17T03:20:35.988Z,-1.7
2019-02-17T03:21:25.796Z,-1.8
2019-02-17T03:22:15.918Z,-1.8
2019-02-17T03:23:05.895Z,-1.9
2019-02-17T03:23:55.675Z,-1.9
2019-02-17T03:24:46.038Z,-2
2019-02-17T03:25:35.800Z,-2.1
2019-02-17T03:26:26.120Z,-2.2
2019-02-17T03:27:16.270Z,-2.2
2019-02-17T03:28:05.961Z,-2.2
2019-02-17T03:28:56.340Z,-2.1
2019-02-17T03:29:46.354Z,-2.1
2019-02-17T03:30:36.833Z,-2.2
2019-02-17T03:31:26.620Z,-2.2
2019-02-17T03:32:16.732Z,-2.2
2019-02-17T03:33:06.356Z,-2.3
2019-02-17T03:33:56.428Z,-2.3
2019-02-17T03:34:46.969Z,-2.4
2019-02-17T03:35:36.787Z,-2.4
2019-02-17T03:36:26.795Z,-2.4
2019-02-17T03:37:17.140Z,-2.5
2019-02-17T03:38:07.200Z,-2.6
2019-02-17T03:38:56.984Z,-2.6
2019-02-17T03:39:47.344Z,-2.6
2019-02-17T03:40:36.798Z,-2.6
2019-02-17T03:41:27.435Z,-2.5
2019-02-17T03:42:16.657Z,-2.6
2019-02-17T03:43:07.562Z,-2.5
2019-02-17T03:43:57.634Z,-2.5
2019-02-17T03:44:47.669Z,-2.5
2019-02-17T03:45:37.453Z,-2.5
2019-02-17T03:46:27.241Z,-2.5
2019-02-17T03:47:17.337Z,-2.5
2019-02-17T03:48:07.609Z,-2.4
2019-02-17T03:48:57.649Z,-2.5
2019-02-17T03:49:48.026Z,-2.4
2019-02-17T03:50:37.519Z,-2.3
2019-02-17T03:51:27.840Z,-2.3
2019-02-17T03:52:17.897Z,-2.3
2019-02-17T03:53:08.218Z,-2.2
2019-02-17T03:53:57.743Z,-2.3
2019-02-17T03:54:48.341Z,-2.2
2019-02-17T03:55:38.408Z,-2.3
2019-02-17T03:56:28.221Z,-2.3
2019-02-17T03:57:18.528Z,-2.3
2019-02-17T03:58:07.746Z,-2.3
2019-02-17T03:58:58.446Z,-2.3
2019-02-17T03:59:48.705Z,-2.3
2019-02-17T04:00:38.191Z,-2.3
2019-02-17T04:01:28.895Z,-2.3
2019-02-17T04:02:18.573Z,-2.4
2019-02-17T04:03:08.628Z,-2.4
2019-02-17T04:03:58.700Z,-2.4
2019-02-17T04:04:48.221Z,-2.5
2019-02-17T04:05:38.598Z,-2.6
2019-02-17T04:06:28.876Z,-2.6
2019-02-17T04:07:18.925Z,-2.7
2019-02-17T04:08:08.988Z,-2.8
2019-02-17T04:08:59.401Z,-2.8
2019-02-17T04:09:49.433Z,-2.8
2019-02-17T04:10:38.903Z,-2.8
2019-02-17T04:11:29.482Z,-2.6
2019-02-17T04:12:19.563Z,-2.6
2019-02-17T04:13:09.335Z,-2.6
2019-02-17T04:13:59.435Z,-2.5
2019-02-17T04:14:49.471Z,-2.4
2019-02-17T04:15:39.792Z,-2.4
2019-02-17T04:16:29.832Z,-2.3
2019-02-17T04:17:19.653Z,-2.2
2019-02-17T04:18:09.670Z,-2.2
2019-02-17T04:18:59.709Z,-2.1
2019-02-17T04:19:49.537Z,-2.1
2019-02-17T04:20:40.169Z,-2.2
2019-02-17T04:21:30.172Z,-2.2
2019-02-17T04:22:20.279Z,-2.1
2019-02-17T04:23:09.467Z,-2.1
2019-02-17T04:24:00.089Z,-2.2
2019-02-17T04:24:50.131Z,-2.3
2019-02-17T04:25:40.074Z,-2.3
2019-02-17T04:26:30.249Z,-2.3
2019-02-17T04:27:20.066Z,-2.3
2019-02-17T04:28:10.112Z,-2.3
2019-02-17T04:29:00.804Z,-2.4
2019-02-17T04:29:50.761Z,-2.4
2019-02-17T04:30:40.650Z,-2.4
2019-02-17T04:31:30.931Z,-2.4
2019-02-17T04:32:20.659Z,-2.4
2019-02-17T04:33:10.716Z,-2.4
2019-02-17T04:34:00.259Z,-2.4
2019-02-17T04:34:50.847Z,-2.6
2019-02-17T04:35:40.995Z,-2.6
2019-02-17T04:36:30.669Z,-2.6
2019-02-17T04:37:21.283Z,-2.6
2019-02-17T04:38:11.358Z,-2.6
2019-02-17T04:39:00.849Z,-2.6
2019-02-17T04:39:51.552Z,-2.8
2019-02-17T04:40:40.693Z,-2.7
2019-02-17T04:41:31.553Z,-2.8
2019-02-17T04:42:21.344Z,-2.8
2019-02-17T04:43:11.496Z,-2.8
2019-02-17T04:44:01.191Z,-2.8
2019-02-17T04:44:51.526Z,-2.8
2019-02-17T04:45:41.069Z,-2.8
2019-02-17T04:46:31.973Z,-2.8
2019-02-17T04:47:21.700Z,-2.8
2019-02-17T04:48:12.020Z,-2.8
2019-02-17T04:49:02.145Z,-2.8
2019-02-17T04:49:52.249Z,-2.8
2019-02-17T04:50:41.918Z,-2.8
2019-02-17T04:51:31.400Z,-2.7
2019-02-17T04:52:22.022Z,-2.6
2019-02-17T04:53:12.373Z,-2.5
2019-02-17T04:54:02.180Z,-2.6
2019-02-17T04:54:52.205Z,-2.5
2019-02-17T04:55:41.745Z,-2.5
2019-02-17T04:56:32.342Z,-2.5
2019-02-17T04:57:22.130Z,-2.5
2019-02-17T04:58:12.173Z,-2.5
2019-02-17T04:59:02.804Z,-2.5
2019-02-17T04:59:52.282Z,-2.4
2019-02-17T05:00:43.713Z,-2.4
2019-02-17T05:01:32.682Z,-2.4
2019-02-17T05:02:22.748Z,-2.5
2019-02-17T05:03:12.511Z,-2.4
2019-02-17T05:04:02.277Z,-2.4
2019-02-17T05:04:52.899Z,-2.4
2019-02-17T05:05:43.343Z,-2.4
2019-02-17T05:06:33.167Z,-2.5
2019-02-17T05:07:23.187Z,-2.6
2019-02-17T05:08:13.132Z,-2.6
2019-02-17T05:09:03.192Z,-2.6
2019-02-17T05:09:53.334Z,-2.6
2019-02-17T05:10:43.129Z,-2.6
2019-02-17T05:11:33.407Z,-2.7
2019-02-17T05:12:23.700Z,-2.7
2019-02-17T05:13:13.742Z,-2.8
2019-02-17T05:14:03.537Z,-2.8
2019-02-17T05:14:53.326Z,-2.8
2019-02-17T05:15:43.944Z,-2.8
2019-02-17T05:16:33.693Z,-2.8
2019-02-17T05:17:23.745Z,-2.8
2019-02-17T05:18:13.836Z,-2.8
2019-02-17T05:19:04.234Z,-2.8
2019-02-17T05:19:53.649Z,-2.8
2019-02-17T05:20:43.757Z,-2.8
2019-02-17T05:21:34.049Z,-2.8
2019-02-17T05:22:24.362Z,-2.8
2019-02-17T05:23:13.907Z,-2.8
2019-02-17T05:24:04.516Z,-2.8
2019-02-17T05:24:54.301Z,-2.8
2019-02-17T05:25:44.356Z,-2.8
2019-02-17T05:26:34.123Z,-2.8
2019-02-17T05:27:24.469Z,-2.8
2019-02-17T05:28:14.529Z,-2.8
2019-02-17T05:29:04.558Z,-2.9
2019-02-17T05:29:54.378Z,-2.9
2019-02-17T05:30:55.716Z,-2.9
2019-02-17T05:31:34.756Z,-2.9
2019-02-17T05:32:24.247Z,-2.9
2019-02-17T05:33:14.610Z,-2.9
2019-02-17T05:34:04.696Z,-2.9
2019-02-17T05:34:55.250Z,-2.9
2019-02-17T05:35:45.341Z,-2.9
2019-02-17T05:36:35.090Z,-2.8
2019-02-17T05:37:25.169Z,-2.8
2019-02-17T05:38:14.973Z,-2.8
2019-02-17T05:39:04.725Z,-2.8
2019-02-17T05:39:55.331Z,-2.7
2019-02-17T05:40:45.639Z,-2.7
2019-02-17T05:41:35.718Z,-2.8
2019-02-17T05:42:25.475Z,-2.7
2019-02-17T05:43:15.099Z,-2.6
2019-02-17T05:44:05.352Z,-2.8
2019-02-17T05:44:55.653Z,-2.8
2019-02-17T05:45:46.082Z,-2.8
2019-02-17T05:46:36.057Z,-2.7
2019-02-17T05:47:25.807Z,-2.8
2019-02-17T05:48:15.889Z,-2.7
2019-02-17T05:49:05.989Z,-2.7
2019-02-17T05:49:56.287Z,-2.6
2019-02-17T05:50:46.187Z,-2.5
2019-02-17T05:51:36.167Z,-2.4
2019-02-17T05:52:25.976Z,-2.4
2019-02-17T05:53:16.505Z,-2.4
2019-02-17T05:54:06.289Z,-2.3
2019-02-17T05:54:56.074Z,-2.3
2019-02-17T05:55:46.679Z,-2.3
2019-02-17T05:56:36.442Z,-2.2
2019-02-17T05:57:26.781Z,-2.1
2019-02-17T05:58:16.562Z,-2.1
2019-02-17T05:59:06.909Z,-2.1
2019-02-17T05:59:56.381Z,-2.1
2019-02-17T06:00:46.742Z,-2
2019-02-17T06:01:37.105Z,-2
2019-02-17T06:02:26.089Z,-1.9
2019-02-17T06:03:16.626Z,-1.9
2019-02-17T06:04:06.951Z,-1.9
2019-02-17T06:06:04.730Z,-1.8
2019-02-17T06:06:54.758Z,-1.8
2019-02-17T06:07:44.865Z,-1.7
2019-02-17T06:08:34.596Z,-1.6
2019-02-17T06:09:25.230Z,-1.6
2019-02-17T06:10:15.011Z,-1.5
2019-02-17T06:11:04.872Z,-1.4
2019-02-17T06:11:55.353Z,-1.4
2019-02-17T06:12:45.487Z,-1.4
2019-02-17T06:13:34.718Z,-1.3
2019-02-17T06:14:25.564Z,-1.3
2019-02-17T06:15:15.059Z,-1.2
2019-02-17T06:16:05.151Z,-1.2
2019-02-17T06:16:55.456Z,-1.1
2019-02-17T06:17:44.946Z,-1.1
2019-02-17T06:18:35.278Z,-1.1
2019-02-17T06:19:25.333Z,-1.1
2019-02-17T06:20:15.674Z,-1
2019-02-17T06:21:05.998Z,-1
2019-02-17T06:21:55.781Z,-1
2019-02-17T06:22:44.938Z,-0.9
2019-02-17T06:24:25.931Z,-0.9
2019-02-17T06:25:16.121Z,-0.8
2019-02-17T06:26:06.417Z,-0.8
2019-02-17T06:26:56.130Z,-0.8
2019-02-17T06:27:46.485Z,-0.8
2019-02-17T06:28:36.514Z,-0.7
2019-02-17T06:29:26.433Z,-0.7
2019-02-17T06:30:16.645Z,-0.7
2019-02-17T06:31:17.317Z,-0.6
2019-02-17T06:31:56.460Z,-0.5
2019-02-17T06:32:45.975Z,-0.5
2019-02-17T06:33:36.308Z,-0.4
2019-02-17T06:34:26.912Z,-0.3
2019-02-17T06:35:16.983Z,-0.2
2019-02-17T06:36:07.042Z,-0.3
2019-02-17T06:36:56.823Z,-0.2
2019-02-17T06:37:46.864Z,-0.3
2019-02-17T06:38:36.670Z,-0.2
2019-02-17T06:39:26.712Z,-0.1
2019-02-17T06:40:16.210Z,-0.1
2019-02-17T06:41:07.125Z,0
2019-02-17T06:41:57.450Z,0
2019-02-17T06:42:47.592Z,0.1
2019-02-17T06:43:37.577Z,0.3
2019-02-17T06:44:26.602Z,0.3
2019-02-17T06:45:19.601Z,0.3
2019-02-17T06:46:07.183Z,0.3
2019-02-17T06:46:57.255Z,0.4
2019-02-17T06:47:47.820Z,0.5
2019-02-17T06:48:37.597Z,0.5
2019-02-17T06:49:26.909Z,0.6
2019-02-17T06:50:17.776Z,0.4
2019-02-17T06:51:08.051Z,0.6
2019-02-17T06:51:57.874Z,0.6
2019-02-17T06:52:47.617Z,0.6
2019-02-17T06:53:38.206Z,0.7
2019-02-17T06:54:27.521Z,0.7
2019-02-17T06:55:17.314Z,0.7
2019-02-17T06:56:10.544Z,0.8
2019-02-17T06:56:57.355Z,0.8
2019-02-17T06:57:47.697Z,0.9
2019-02-17T06:58:38.617Z,1
2019-02-17T06:59:28.623Z,1
2019-02-17T07:00:18.126Z,1.1
2019-02-17T07:01:08.476Z,1.1
2019-02-17T07:01:58.515Z,1.2
2019-02-17T07:02:48.588Z,1.3
2019-02-17T07:03:39.315Z,1.3
2019-02-17T07:06:04.715Z,1.4
2019-02-17T07:06:54.885Z,1.6
2019-02-17T07:07:44.585Z,1.7
2019-02-17T07:08:34.349Z,1.7
2019-02-17T07:09:24.401Z,1.8
2019-02-17T07:10:14.988Z,2
2019-02-17T07:11:04.496Z,2
2019-02-17T07:11:58.010Z,2.1
2019-02-17T07:12:45.645Z,2.1
2019-02-17T07:13:35.140Z,2.1
2019-02-17T07:14:25.490Z,2.1
2019-02-17T07:15:14.995Z,2.1
2019-02-17T07:16:05.595Z,2.1
2019-02-17T07:16:55.087Z,1.9
2019-02-17T07:17:45.167Z,2.1
2019-02-17T07:18:35.770Z,2.2
2019-02-17T07:19:25.281Z,2.2
2019-02-17T07:20:15.630Z,2.3
2019-02-17T07:21:05.942Z,2.3
2019-02-17T07:21:55.440Z,2.4
2019-02-17T07:22:46.127Z,2.5
2019-02-17T07:23:35.857Z,2.4
2019-02-17T07:24:26.197Z,2.5
2019-02-17T07:25:15.975Z,2.6
2019-02-17T07:26:06.001Z,2.9
2019-02-17T07:26:56.114Z,2.8
2019-02-17T07:27:46.389Z,2.8
2019-02-17T07:28:36.447Z,2.9
2019-02-17T07:29:26.340Z,2.6
2019-02-17T07:30:16.292Z,2.8
2019-02-17T07:31:06.352Z,2.9
2019-02-17T07:31:56.719Z,3.2
2019-02-17T07:32:46.747Z,2.9
2019-02-17T07:33:36.852Z,2.8
2019-02-17T07:34:26.422Z,3.1
2019-02-17T07:35:16.666Z,3.2
2019-02-17T07:36:06.997Z,3.3
2019-02-17T07:36:56.801Z,3.4
2019-02-17T07:37:46.814Z,3.5
2019-02-17T07:38:37.151Z,3.4
2019-02-17T07:39:26.931Z,3.6
2019-02-17T07:40:17.251Z,3.6
2019-02-17T07:41:07.039Z,3.6
2019-02-17T07:41:56.834Z,3.8
2019-02-17T07:42:47.445Z,3.9
2019-02-17T07:43:37.481Z,3.9
2019-02-17T07:44:27.564Z,3.9
2019-02-17T07:45:17.326Z,3.9
2019-02-17T07:46:07.647Z,3.9
2019-02-17T07:46:57.156Z,3.8
2019-02-17T07:47:47.491Z,4
2019-02-17T07:48:37.881Z,3.9
2019-02-17T07:49:27.631Z,3.6
2019-02-17T07:50:17.936Z,3.6
2019-02-17T07:51:07.249Z,3.6
2019-02-17T07:51:57.221Z,3.6
2019-02-17T07:52:48.130Z,4.1
2019-02-17T07:53:37.408Z,4.3
2019-02-17T07:54:27.191Z,4.1
2019-02-17T07:55:17.740Z,4
2019-02-17T07:56:08.331Z,3.7
2019-02-17T07:56:57.674Z,4.1
2019-02-17T07:57:47.353Z,4.3
2019-02-17T07:58:38.223Z,4.6
2019-02-17T07:59:28.007Z,4.5
2019-02-17T08:00:18.085Z,4.7
2019-02-17T08:01:10.005Z,4.7
2019-02-17T08:01:58.450Z,4.9
2019-02-17T08:02:50.441Z,5
2019-02-17T08:03:38.312Z,5.2
2019-02-17T08:04:28.900Z,5
2019-02-17T08:05:18.688Z,5.2
2019-02-17T08:06:08.742Z,5.2
2019-02-17T08:06:58.605Z,5.2
2019-02-17T08:07:48.578Z,5.3
2019-02-17T08:08:39.192Z,5.5
2019-02-17T08:09:29.250Z,5.1
2019-02-17T08:10:18.489Z,5.6
2019-02-17T08:11:09.373Z,5.8
2019-02-17T08:11:58.914Z,5.8
2019-02-17T08:12:49.487Z,5.8
2019-02-17T08:13:39.312Z,5.8
2019-02-17T08:14:29.423Z,5.3
2019-02-17T08:15:19.125Z,5.4
2019-02-17T08:16:09.185Z,5.5
2019-02-17T08:16:58.670Z,5.6
2019-02-17T08:17:49.599Z,5.7
2019-02-17T08:18:39.955Z,5.7
2019-02-17T08:19:29.942Z,6
2019-02-17T08:20:19.711Z,5.9
2019-02-17T08:21:09.496Z,6.1
2019-02-17T08:21:59.894Z,6.3
2019-02-17T08:22:49.696Z,6.1
2019-02-17T08:23:39.949Z,6.1
2019-02-17T08:24:29.734Z,6.2
2019-02-17T08:25:24.951Z,6.4
2019-02-17T08:26:10.129Z,6.5
2019-02-17T08:27:00.166Z,6.4
2019-02-17T08:27:49.955Z,6.4
2019-02-17T08:28:42.477Z,6.2
2019-02-17T08:29:29.793Z,5.9
2019-02-17T08:30:20.399Z,6
2019-02-17T08:31:10.464Z,6.3
2019-02-17T08:31:59.973Z,6.6
2019-02-17T08:32:50.588Z,6.7
2019-02-17T08:33:40.636Z,6.9
2019-02-17T08:34:30.773Z,6.9
2019-02-17T08:35:20.474Z,6.8
2019-02-17T08:36:11.103Z,6.5
2019-02-17T08:37:01.144Z,6.6
2019-02-17T08:37:50.142Z,6.9
2019-02-17T08:38:40.986Z,7.1
2019-02-17T08:39:31.056Z,6.8
2019-02-17T08:40:20.828Z,6.9
2019-02-17T08:41:11.439Z,7.3
2019-02-17T08:42:00.730Z,7.5
2019-02-17T08:42:51.536Z,7.4
2019-02-17T08:43:40.493Z,7.4
2019-02-17T08:44:30.831Z,7.4
2019-02-17T08:45:21.713Z,7.4
2019-02-17T08:46:11.775Z,7.2
2019-02-17T08:47:01.853Z,7.2
2019-02-17T08:47:51.345Z,7.3
2019-02-17T08:48:41.955Z,7.2
2019-02-17T08:49:31.165Z,6.9
2019-02-17T08:50:22.651Z,7.2
2019-02-17T08:51:11.096Z,7.4
2019-02-17T08:52:03.372Z,7.7
2019-02-17T08:52:51.217Z,7.9
2019-02-17T08:53:41.527Z,7.2
2019-02-17T08:54:31.392Z,7.1
2019-02-17T08:55:21.747Z,7.4
2019-02-17T08:56:11.985Z,7.4
2019-02-17T08:57:02.528Z,7.5
2019-02-17T08:57:52.319Z,7.5
2019-02-17T08:58:41.697Z,6.9
2019-02-17T08:59:32.209Z,7.1
2019-02-17T09:00:22.752Z,7.4
2019-02-17T09:01:11.304Z,7.6
2019-02-17T09:02:08.434Z,7.9
2019-02-17T09:02:51.619Z,7.8
2019-02-17T09:03:42.489Z,8
2019-02-17T09:04:32.290Z,7.9
2019-02-17T09:05:22.609Z,8.2
2019-02-17T09:06:12.400Z,8.4
2019-02-17T09:07:01.954Z,8.2
2019-02-17T09:07:52.499Z,8.3
2019-02-17T09:08:42.303Z,7.9
2019-02-17T09:09:32.631Z,7.9
2019-02-17T09:10:22.124Z,7.9
2019-02-17T09:11:12.726Z,7.7
2019-02-17T09:12:03.061Z,7.8
2019-02-17T09:12:53.123Z,7.6
2019-02-17T09:13:42.188Z,7.4
2019-02-17T09:14:33.326Z,7.4
2019-02-17T09:15:23.343Z,7.5
2019-02-17T09:16:13.094Z,7.9
2019-02-17T09:17:03.415Z,7.9
2019-02-17T09:17:53.464Z,8.1
2019-02-17T09:18:43.528Z,7.8
2019-02-17T09:19:33.293Z,7.5
2019-02-17T09:20:23.733Z,7.3
2019-02-17T09:21:13.688Z,7.3
2019-02-17T09:22:03.565Z,7.7
2019-02-17T09:22:53.543Z,8
2019-02-17T09:23:43.068Z,8
2019-02-17T09:24:33.653Z,7.9
2019-02-17T09:25:23.448Z,8.3
2019-02-17T09:26:13.772Z,8.3
2019-02-17T09:27:03.840Z,8.2
2019-02-17T09:27:53.613Z,7.9
2019-02-17T09:28:44.213Z,8.1
2019-02-17T09:29:33.992Z,8
2019-02-17T09:30:24.062Z,8.2
2019-02-17T09:31:14.092Z,8.4
2019-02-17T09:32:04.177Z,8.6
2019-02-17T09:32:54.264Z,8.4
2019-02-17T09:33:44.549Z,8.6
2019-02-17T09:34:34.400Z,8.6
2019-02-17T09:35:23.667Z,8.5
2019-02-17T09:36:14.181Z,8.8
2019-02-17T09:37:04.302Z,9
2019-02-17T09:37:54.559Z,8.8
2019-02-17T09:38:45.110Z,8.7
2019-02-17T09:39:35.429Z,8.7
2019-02-17T09:40:24.454Z,8.9
2019-02-17T09:41:14.789Z,8.8
2019-02-17T09:42:05.125Z,8.7
2019-02-17T09:42:55.649Z,8.6
2019-02-17T09:43:48.079Z,8.8
2019-02-17T09:44:35.494Z,9.3
2019-02-17T09:45:24.854Z,9.5
2019-02-17T09:46:15.613Z,9.8
2019-02-17T09:47:05.509Z,9.7
2019-02-17T09:47:55.238Z,9.9
2019-02-17T09:48:45.777Z,10.1
2019-02-17T09:49:35.566Z,10.3
2019-02-17T09:50:25.473Z,10.1
2019-02-17T09:51:15.483Z,9.7
2019-02-17T09:52:05.817Z,9.4
2019-02-17T09:52:55.328Z,9.4
2019-02-17T09:53:46.391Z,9.4
2019-02-17T09:54:35.995Z,9.8
2019-02-17T09:55:26.063Z,10.1
2019-02-17T09:56:16.100Z,9.8
2019-02-17T09:57:06.154Z,9.4
2019-02-17T09:57:56.158Z,9.3
2019-02-17T09:58:46.753Z,9.4
2019-02-17T09:59:36.255Z,9.9
2019-02-17T10:00:26.138Z,9.9
2019-02-17T10:01:16.939Z,9.6
2019-02-17T10:02:05.965Z,10.3
2019-02-17T10:02:56.279Z,10.4
2019-02-17T10:03:46.112Z,10.7
2019-02-17T10:04:36.388Z,10.4
2019-02-17T10:07:03.445Z,10.8
2019-02-17T10:07:54.092Z,11.1
2019-02-17T10:08:44.182Z,10.9
2019-02-17T10:09:33.624Z,10.5
2019-02-17T10:10:24.707Z,10.3
2019-02-17T10:11:14.011Z,10.1
2019-02-17T10:12:04.047Z,10.6
2019-02-17T10:12:54.669Z,11.1
2019-02-17T10:13:44.929Z,11.2
2019-02-17T10:14:34.502Z,11.3
2019-02-17T10:15:24.852Z,11.1
2019-02-17T10:16:14.641Z,10.9
2019-02-17T10:17:04.624Z,11
2019-02-17T10:17:54.278Z,11.3
2019-02-17T10:18:45.284Z,11.4
2019-02-17T10:19:35.129Z,11.4
2019-02-17T10:20:26.722Z,11.5
2019-02-17T10:21:14.967Z,11.8
2019-02-17T10:22:05.561Z,11.9
2019-02-17T10:22:55.127Z,11.9
2019-02-17T10:23:45.156Z,12.1
2019-02-17T10:24:34.662Z,12.3
2019-02-17T10:25:25.313Z,12.2
2019-02-17T10:26:14.861Z,11.9
2019-02-17T10:27:04.869Z,12.3
2019-02-17T10:27:55.449Z,12.4
2019-02-17T10:28:45.491Z,12.4
2019-02-17T10:29:35.824Z,12.5
2019-02-17T10:30:26.371Z,11.9
2019-02-17T10:31:15.949Z,11.4
2019-02-17T10:32:05.991Z,11.3
2019-02-17T10:32:55.781Z,11.3
2019-02-17T10:33:45.873Z,11.3
2019-02-17T10:34:35.721Z,11.5
2019-02-17T10:35:25.508Z,11.6
2019-02-17T10:36:16.020Z,11.9
2019-02-17T10:37:05.774Z,12.3
2019-02-17T10:37:56.397Z,11.8
2019-02-17T10:38:45.966Z,11.6
2019-02-17T10:39:36.521Z,11.3
2019-02-17T10:40:26.638Z,11.6
2019-02-17T10:41:16.362Z,11.8
2019-02-17T10:42:06.403Z,11.7
2019-02-17T10:42:56.738Z,11.8
2019-02-17T10:43:46.521Z,12.3
2019-02-17T10:44:36.874Z,12.4
2019-02-17T10:45:26.430Z,12.6
2019-02-17T10:46:16.509Z,12.9
2019-02-17T10:47:06.768Z,12.7
2019-02-17T10:47:57.080Z,12.1
2019-02-17T10:48:47.518Z,12.4
2019-02-17T10:49:36.640Z,12.6
2019-02-17T10:50:26.710Z,13
2019-02-17T10:51:17.317Z,12.6
2019-02-17T10:52:07.107Z,12.5
2019-02-17T10:52:57.160Z,13
2019-02-17T10:53:46.932Z,12.2
2019-02-17T10:54:37.547Z,11.8
2019-02-17T10:55:27.614Z,11.8
2019-02-17T10:56:17.379Z,11.4
2019-02-17T10:57:07.449Z,11.8
2019-02-17T10:57:57.770Z,11.6
2019-02-17T10:58:47.579Z,12.1
2019-02-17T10:59:38.362Z,12.1
2019-02-17T11:00:27.694Z,12.3
2019-02-17T11:01:18.500Z,12.6
2019-02-17T11:02:08.057Z,12.8
2019-02-17T11:02:58.129Z,12.4
2019-02-17T11:03:48.154Z,12.1
2019-02-17T11:04:38.254Z,11.9
2019-02-17T11:05:28.491Z,11.7
2019-02-17T11:06:18.351Z,11.7
2019-02-17T11:07:07.606Z,12.4
2019-02-17T11:07:58.461Z,12.8
2019-02-17T11:08:48.576Z,13.3
2019-02-17T11:09:38.684Z,13.6
2019-02-17T11:10:28.096Z,13.6
2019-02-17T11:11:18.697Z,13.3
2019-02-17T11:12:09.026Z,13.1
2019-02-17T11:12:58.601Z,12.8
2019-02-17T11:13:48.851Z,12.5
2019-02-17T11:14:39.118Z,12.5
2019-02-17T11:15:29.173Z,12.9
2019-02-17T11:16:19.528Z,12.9
2019-02-17T11:17:09.383Z,13
2019-02-17T11:17:58.818Z,13.3
2019-02-17T11:18:51.912Z,13.4
2019-02-17T11:19:39.766Z,13.4
2019-02-17T11:20:29.260Z,13.9
2019-02-17T11:21:19.925Z,13.9
2019-02-17T11:22:09.390Z,13.6
2019-02-17T11:22:59.996Z,13.6
2019-02-17T11:23:49.651Z,13.6